Time;durP1;ratioP1;P1;durP2;ratioP2;P2;SDS_P1;SDS_P2;PMS_P1;PMS_P2;Temp;Humidity;BMP_temperature;BMP_pressure;BME280_temperature;BME280_humidity;BME280_pressure;Samples;Min_cycle;Max_cycle;Signal;HPM_P1;HPM_P2
2022/05/20 00:03:04;;;;;;;10.57;5.57;;;;;;;;;;8459048;28;20566;-86
2022/05/20 00:07:07;;;;;;;8.43;4.78;;;;;;;;;;8462246;28;20048;-87
2022/05/20 00:11:10;;;;;;;9.93;4.30;;;;;;;;;;8463786;28;20052;-86
2022/05/20 00:15:15;;;;;;;8.23;4.15;;;;;;;;;;8463847;28;20043;-86
2022/05/20 00:19:19;;;;;;;8.55;4.80;;;;;;;;;;8463715;28;20051;-87
2022/05/20 00:23:22;;;;;;;7.90;5.10;;;;;;;;;;8463289;28;20552;-87
2022/05/20 00:27:25;;;;;;;9.88;4.40;;;;;;;;;;8463653;28;20050;-88
2022/05/20 00:31:28;;;;;;;12.68;4.53;;;;;;;;;;8463562;28;20048;-87
2022/05/20 00:35:32;;;;;;;11.02;4.40;;;;;;;;;;8457840;28;20043;-86
2022/05/20 00:39:35;;;;;;;12.80;4.55;;;;;;;;;;8463291;28;20446;-86
2022/05/20 00:43:40;;;;;;;7.95;4.47;;;;;;;;;;8463295;28;20051;-87
2022/05/20 00:47:43;;;;;;;8.65;4.30;;;;;;;;;;8469292;28;20044;-87
2022/05/20 00:51:53;;;;;;;10.38;4.55;;;;;;;;;;8470111;28;20043;-87
2022/05/20 00:55:57;;;;;;;10.15;4.30;;;;;;;;;;8469964;28;20044;-86
2022/05/20 01:00:05;;;;;;;8.80;3.75;;;;;;;;;;8469825;28;20043;-86
2022/05/20 01:04:08;;;;;;;8.93;4.25;;;;;;;;;;8451668;28;20114;-86
2022/05/20 01:08:15;;;;;;;8.75;4.28;;;;;;;;;;8469649;28;20043;-86
2022/05/20 01:12:18;;;;;;;8.57;3.97;;;;;;;;;;8469332;28;20062;-87
2022/05/20 01:16:20;;;;;;;8.93;4.45;;;;;;;;;;8469406;28;20104;-87
2022/05/20 01:20:26;;;;;;;7.05;3.85;;;;;;;;;;8468632;28;20043;-88
2022/05/20 01:24:30;;;;;;;8.48;4.15;;;;;;;;;;8468097;28;20104;-88
2022/05/20 01:28:34;;;;;;;10.68;4.28;;;;;;;;;;8468979;28;20068;-87
2022/05/20 01:32:37;;;;;;;6.60;3.97;;;;;;;;;;8468738;28;20043;-87
2022/05/20 01:36:40;;;;;;;6.07;3.45;;;;;;;;;;8468755;28;20091;-87
2022/05/20 01:40:48;;;;;;;9.32;3.90;;;;;;;;;;8468376;28;20043;-87
2022/05/20 01:44:56;;;;;;;8.65;4.00;;;;;;;;;;8468502;28;20095;-86
2022/05/20 01:49:26;;;;;;;8.68;4.10;;;;;;;;;;8468211;28;20047;-86
2022/05/20 01:53:36;;;;;;;6.22;3.42;;;;;;;;;;8468164;28;20055;-86
2022/05/20 01:57:47;;;;;;;7.72;3.40;;;;;;;;;;8467236;28;20047;-87
2022/05/20 02:01:56;;;;;;;10.02;3.85;;;;;;;;;;8467962;28;20096;-86
2022/05/20 02:06:05;;;;;;;7.53;3.80;;;;;;;;;;8467899;28;20100;-86
2022/05/20 02:10:13;;;;;;;7.40;3.70;;;;;;;;;;8467696;28;20457;-87
2022/05/20 02:14:24;;;;;;;10.35;4.18;;;;;;;;;;8461579;28;20084;-87
2022/05/20 02:18:31;;;;;;;7.67;3.73;;;;;;;;;;8462042;28;20487;-87
2022/05/20 02:22:38;;;;;;;6.43;3.83;;;;;;;;;;8467026;28;20419;-86
2022/05/20 02:26:46;;;;;;;5.88;3.70;;;;;;;;;;8466957;28;20051;-87
2022/05/20 02:30:51;;;;;;;9.77;3.83;;;;;;;;;;8466947;28;20048;-87
2022/05/20 02:34:54;;;;;;;11.23;4.28;;;;;;;;;;8466798;28;20043;-87
2022/05/20 02:38:57;;;;;;;8.50;3.85;;;;;;;;;;8466906;28;20494;-86
2022/05/20 02:42:59;;;;;;;6.97;3.60;;;;;;;;;;8466492;28;20126;-87
2022/05/20 02:47:05;;;;;;;8.35;3.83;;;;;;;;;;8448644;28;20047;-87
2022/05/20 02:51:07;;;;;;;5.80;3.53;;;;;;;;;;8460353;28;20593;-87
2022/05/20 02:55:11;;;;;;;9.07;3.72;;;;;;;;;;8459384;28;20044;-86
2022/05/20 03:07:55;;;;;;;9.60;4.03;;;;;;;;;;8465711;28;20114;-85
2022/05/20 03:11:57;;;;;;;6.55;3.75;;;;;;;;;;8465650;28;20055;-86
2022/05/20 03:16:00;;;;;;;7.63;3.50;;;;;;;;;;8465372;28;20039;-86
2022/05/20 03:20:06;;;;;;;7.53;3.92;;;;;;;;;;8464815;28;20126;-88
2022/05/20 03:24:09;;;;;;;9.23;3.70;;;;;;;;;;8464942;28;20074;-86
2022/05/20 03:28:12;;;;;;;7.82;3.53;;;;;;;;;;8465056;28;20047;-86
2022/05/20 03:32:16;;;;;;;11.93;4.07;;;;;;;;;;8465046;28;20100;-87
2022/05/20 03:36:21;;;;;;;8.57;4.03;;;;;;;;;;8464815;28;20044;-87
2022/05/20 03:40:24;;;;;;;7.18;3.80;;;;;;;;;;8464663;28;20040;-87
2022/05/20 03:44:27;;;;;;;5.65;3.65;;;;;;;;;;8464743;28;20100;-87
2022/05/20 03:48:30;;;;;;;7.22;3.90;;;;;;;;;;8464471;28;20054;-87
2022/05/20 03:52:34;;;;;;;11.15;4.43;;;;;;;;;;8464615;28;20092;-87
2022/05/20 03:56:38;;;;;;;5.47;3.38;;;;;;;;;;8457224;28;20054;-88
2022/05/20 04:04:58;;;;;;;8.85;4.13;;;;;;;;;;8464831;28;20043;-87
2022/05/20 04:09:02;;;;;;;6.28;4.10;;;;;;;;;;8465100;28;20044;-88
2022/05/20 04:13:06;;;;;;;7.15;4.22;;;;;;;;;;8464463;28;20043;-88
2022/05/20 04:17:09;;;;;;;7.78;4.20;;;;;;;;;;8464423;28;20063;-88
2022/05/20 04:21:14;;;;;;;7.07;3.40;;;;;;;;;;8456772;28;20044;-89
2022/05/20 04:25:18;;;;;;;8.93;4.55;;;;;;;;;;8457698;28;20128;-88
2022/05/20 04:29:21;;;;;;;8.38;4.45;;;;;;;;;;8464087;28;20043;-87
2022/05/20 04:33:23;;;;;;;10.07;3.55;;;;;;;;;;8463042;28;20441;-88
2022/05/20 04:37:27;;;;;;;8.23;3.40;;;;;;;;;;8463337;28;20395;-88
2022/05/20 04:50:12;;;;;;;6.10;2.65;;;;;;;;;;8462213;28;20093;-88
2022/05/20 04:58:37;;;;;;;7.15;2.65;;;;;;;;;;8463328;28;20399;-89
2022/05/20 05:02:41;;;;;;;5.40;2.50;;;;;;;;;;8463010;28;20048;-88
2022/05/20 05:06:44;;;;;;;4.40;2.50;;;;;;;;;;8462940;28;20685;-89
2022/05/20 05:10:47;;;;;;;6.13;2.67;;;;;;;;;;8452387;28;20055;-90
2022/05/20 05:14:59;;;;;;;4.60;2.28;;;;;;;;;;8441193;28;20044;-92
2022/05/20 05:19:07;;;;;;;8.38;3.58;;;;;;;;;;8463441;28;20100;-92
2022/05/20 05:23:10;;;;;;;7.03;2.30;;;;;;;;;;8461990;28;20059;-89
2022/05/20 05:27:13;;;;;;;6.03;2.08;;;;;;;;;;8459826;28;20067;-88
2022/05/20 05:31:17;;;;;;;7.18;2.40;;;;;;;;;;8461199;28;20040;-87
2022/05/20 05:35:23;;;;;;;4.47;2.20;;;;;;;;;;8468078;28;20051;-87
2022/05/20 05:39:25;;;;;;;3.63;2.33;;;;;;;;;;8468876;28;20048;-87
2022/05/20 05:43:29;;;;;;;5.00;1.73;;;;;;;;;;8468482;28;20043;-87
2022/05/20 05:47:33;;;;;;;9.07;2.50;;;;;;;;;;8468162;28;20574;-87
2022/05/20 05:51:36;;;;;;;6.00;2.75;;;;;;;;;;8468214;28;20044;-87
2022/05/20 05:55:39;;;;;;;8.32;2.05;;;;;;;;;;8468442;28;20510;-88
2022/05/20 05:59:42;;;;;;;4.32;1.92;;;;;;;;;;8467906;28;20056;-87
2022/05/20 06:03:46;;;;;;;4.10;2.33;;;;;;;;;;8467956;28;20040;-87
2022/05/20 06:07:51;;;;;;;8.02;2.20;;;;;;;;;;8467288;28;20147;-88
2022/05/20 06:11:54;;;;;;;4.85;2.10;;;;;;;;;;8467682;28;20679;-87
2022/05/20 06:15:58;;;;;;;4.97;1.90;;;;;;;;;;8467563;28;20057;-88
2022/05/20 06:20:04;;;;;;;4.18;2.30;;;;;;;;;;8460285;28;20115;-87
2022/05/20 06:24:08;;;;;;;3.70;2.10;;;;;;;;;;8460378;28;20062;-87
2022/05/20 06:28:14;;;;;;;8.80;2.55;;;;;;;;;;8467073;28;20419;-87
2022/05/20 06:32:17;;;;;;;7.13;2.67;;;;;;;;;;8467017;28;20134;-87
2022/05/20 06:40:44;;;;;;;;;;;;;;;;;;8461549;28;20048;-88
2022/05/20 06:44:47;;;;;;;5.38;2.60;;;;;;;;;;8466130;28;20368;-87
2022/05/20 06:48:51;;;;;;;4.45;2.20;;;;;;;;;;8466601;28;20044;-87
2022/05/20 06:52:56;;;;;;;11.40;3.13;;;;;;;;;;8460152;28;20441;-87
2022/05/20 06:56:59;;;;;;;5.47;2.40;;;;;;;;;;8459707;28;20043;-87
2022/05/20 07:01:01;;;;;;;6.68;2.50;;;;;;;;;;8465859;28;20130;-88
2022/05/20 07:05:06;;;;;;;7.65;2.42;;;;;;;;;;8465893;28;20047;-87
2022/05/20 07:09:10;;;;;;;8.73;3.08;;;;;;;;;;8465717;28;20134;-87
2022/05/20 07:13:14;;;;;;;9.02;2.42;;;;;;;;;;8465535;28;20077;-87
2022/05/20 07:17:17;;;;;;;5.60;2.65;;;;;;;;;;8465438;28;20078;-87
2022/05/20 07:21:20;;;;;;;6.88;2.47;;;;;;;;;;8465048;28;20039;-87
2022/05/20 07:25:25;;;;;;;4.55;2.20;;;;;;;;;;8465282;28;20040;-87
2022/05/20 07:29:28;;;;;;;6.32;2.60;;;;;;;;;;8465510;28;20039;-87
2022/05/20 07:33:30;;;;;;;5.88;2.42;;;;;;;;;;8464914;28;20092;-87
2022/05/20 07:37:33;;;;;;;4.20;2.20;;;;;;;;;;8460087;28;20048;-89
2022/05/20 07:41:37;;;;;;;5.25;2.60;;;;;;;;;;8459798;28;20043;-88
2022/05/20 07:45:41;;;;;;;6.53;2.20;;;;;;;;;;8456909;28;20123;-89
2022/05/20 07:49:43;;;;;;;5.32;2.83;;;;;;;;;;8463307;28;20044;-89
2022/05/20 07:53:53;;;;;;;6.85;2.70;;;;;;;;;;8463285;28;20036;-89
2022/05/20 07:57:57;;;;;;;9.38;2.55;;;;;;;;;;8463650;28;20036;-89
2022/05/20 08:02:01;;;;;;;9.40;2.80;;;;;;;;;;8460522;28;20054;-90
2022/05/20 08:06:04;;;;;;;6.18;3.25;;;;;;;;;;8463399;28;20059;-89
2022/05/20 08:10:11;;;;;;;8.02;3.72;;;;;;;;;;8464151;28;20039;-88
2022/05/20 08:14:15;;;;;;;7.43;4.18;;;;;;;;;;8462991;28;20193;-87
2022/05/20 08:18:18;;;;;;;9.15;3.00;;;;;;;;;;8452899;28;20047;-88
2022/05/20 08:22:23;;;;;;;12.60;3.33;;;;;;;;;;8446959;28;20056;-88
2022/05/20 08:26:28;;;;;;;5.75;2.63;;;;;;;;;;8462532;28;20070;-87
2022/05/20 08:30:34;;;;;;;8.65;2.75;;;;;;;;;;8462577;28;20040;-87
2022/05/20 08:34:38;;;;;;;6.93;2.85;;;;;;;;;;8463339;28;20073;-87
2022/05/20 08:38:46;;;;;;;9.38;3.88;;;;;;;;;;8463533;28;20040;-89
2022/05/20 08:42:55;;;;;;;8.07;3.78;;;;;;;;;;8434440;28;20047;-88
2022/05/20 08:47:21;;;;;;;7.78;2.80;;;;;;;;;;8457899;28;20039;-89
2022/05/20 08:51:32;;;;;;;10.00;4.05;;;;;;;;;;8451870;28;20040;-88
2022/05/20 08:55:41;;;;;;;7.38;3.72;;;;;;;;;;8461178;28;20116;-86
2022/05/20 08:59:45;;;;;;;39.40;16.55;;;;;;;;;;8456853;28;20134;-87
2022/05/20 09:03:52;;;;;;;15.20;6.68;;;;;;;;;;8457612;28;20051;-87
2022/05/20 09:08:01;;;;;;;13.93;4.15;;;;;;;;;;8462786;28;20048;-87
2022/05/20 09:12:09;;;;;;;11.43;5.40;;;;;;;;;;8465125;28;20372;-88
2022/05/20 09:16:20;;;;;;;6.43;3.28;;;;;;;;;;8464192;28;20052;-87
2022/05/20 09:20:25;;;;;;;7.05;3.58;;;;;;;;;;8464768;28;20046;-85
2022/05/20 09:24:40;;;;;;;6.60;3.60;;;;;;;;;;8464321;28;20121;-87
2022/05/20 09:28:55;;;;;;;12.50;4.65;;;;;;;;;;8464137;28;20563;-87
2022/05/20 09:33:12;;;;;;;6.78;3.60;;;;;;;;;;8464120;28;20054;-87
2022/05/20 09:37:23;;;;;;;10.43;4.30;;;;;;;;;;8464229;28;20134;-86
2022/05/20 09:41:36;;;;;;;27.83;15.07;;;;;;;;;;8464005;28;20075;-87
2022/05/20 09:45:45;;;;;;;10.82;4.20;;;;;;;;;;8458957;28;20039;-87
2022/05/20 09:49:53;;;;;;;14.93;6.00;;;;;;;;;;8458148;28;20040;-88
2022/05/20 09:54:13;;;;;;;17.27;8.75;;;;;;;;;;8466542;28;20048;-87
2022/05/20 09:58:18;;;;;;;11.75;5.82;;;;;;;;;;8464502;28;20186;-87
2022/05/20 10:02:26;;;;;;;13.00;4.85;;;;;;;;;;8467551;28;20047;-86
2022/05/20 10:06:33;;;;;;;13.20;5.60;;;;;;;;;;8466963;28;20054;-87
2022/05/20 10:10:47;;;;;;;8.90;4.50;;;;;;;;;;8467699;28;20047;-87
2022/05/20 10:14:56;;;;;;;8.10;3.47;;;;;;;;;;8467689;28;20042;-87
2022/05/20 10:19:11;;;;;;;7.15;3.28;;;;;;;;;;8467027;28;20075;-87
2022/05/20 10:23:21;;;;;;;10.20;4.65;;;;;;;;;;8461271;28;20059;-87
2022/05/20 10:27:32;;;;;;;11.50;5.38;;;;;;;;;;8467183;28;20040;-87
2022/05/20 10:36:15;;;;;;;10.20;3.60;;;;;;;;;;8467462;28;20427;-86
2022/05/20 10:40:43;;;;;;;6.45;2.90;;;;;;;;;;8466996;28;20066;-89
2022/05/20 10:49:33;;;;;;;7.47;3.45;;;;;;;;;;8466506;28;20410;-88
2022/05/20 10:53:46;;;;;;;5.40;3.20;;;;;;;;;;8460659;28;20065;-87
2022/05/20 10:58:16;;;;;;;5.82;3.28;;;;;;;;;;8466239;28;20049;-87
2022/05/20 11:03:04;;;;;;;6.20;3.08;;;;;;;;;;8466034;28;20039;-87
2022/05/20 11:07:35;;;;;;;10.75;4.68;;;;;;;;;;8463305;28;20051;-87
2022/05/20 11:11:58;;;;;;;8.70;3.50;;;;;;;;;;8459796;28;20048;-87
2022/05/20 11:16:21;;;;;;;8.20;2.90;;;;;;;;;;8448321;28;20776;-87
2022/05/20 11:20:47;;;;;;;8.88;3.22;;;;;;;;;;8460234;28;20040;-89
2022/05/20 11:25:11;;;;;;;7.25;3.53;;;;;;;;;;8461294;28;20051;-89
2022/05/20 11:29:42;;;;;;;9.00;3.53;;;;;;;;;;8455536;28;20487;-88
2022/05/20 11:34:00;;;;;;;6.47;2.90;;;;;;;;;;8458182;28;20444;-90
2022/05/20 11:38:40;;;;;;;6.75;3.55;;;;;;;;;;8462387;28;20470;-88
2022/05/20 11:43:01;;;;;;;8.02;3.22;;;;;;;;;;8463958;28;20043;-88
2022/05/20 11:47:25;;;;;;;6.40;2.80;;;;;;;;;;8459566;28;20043;-89
2022/05/20 11:51:55;;;;;;;5.65;3.35;;;;;;;;;;8462929;28;20047;-88
2022/05/20 11:56:07;;;;;;;6.15;2.70;;;;;;;;;;8457696;28;20040;-87
2022/05/20 12:00:16;;;;;;;10.93;2.65;;;;;;;;;;8463397;28;20039;-88
2022/05/20 12:04:21;;;;;;;6.22;2.55;;;;;;;;;;8463993;28;20101;-87
2022/05/20 12:08:57;;;;;;;5.80;2.53;;;;;;;;;;8463952;28;20040;-89
2022/05/20 12:13:10;;;;;;;9.13;2.55;;;;;;;;;;8463860;28;20043;-86
2022/05/20 12:17:29;;;;;;;7.15;2.45;;;;;;;;;;8463855;28;20044;-86
2022/05/20 12:26:26;;;;;;;8.05;2.72;;;;;;;;;;8452723;28;20039;-87
2022/05/20 12:30:38;;;;;;;5.18;2.60;;;;;;;;;;8457435;28;20040;-88
2022/05/20 12:34:45;;;;;;;12.02;2.60;;;;;;;;;;8457085;28;20410;-87
2022/05/20 12:38:48;;;;;;;3.67;2.15;;;;;;;;;;8456651;28;20402;-88
2022/05/20 12:42:58;;;;;;;4.18;2.65;;;;;;;;;;8465386;28;20388;-88
2022/05/20 12:47:15;;;;;;;7.65;2.63;;;;;;;;;;8470226;28;20039;-88
2022/05/20 12:51:19;;;;;;;11.70;2.92;;;;;;;;;;8468714;28;20051;-88
2022/05/20 12:55:24;;;;;;;7.70;2.55;;;;;;;;;;8469695;28;20051;-88
2022/05/20 12:59:28;;;;;;;7.40;2.95;;;;;;;;;;8450505;28;20040;-88
2022/05/20 13:03:35;;;;;;;10.55;2.78;;;;;;;;;;8458086;28;20071;-88
2022/05/20 13:07:42;;;;;;;12.43;2.88;;;;;;;;;;8446162;28;20051;-87
2022/05/20 13:11:50;;;;;;;7.55;2.95;;;;;;;;;;8465578;28;20482;-87
2022/05/20 13:15:56;;;;;;;4.57;2.28;;;;;;;;;;8469271;28;20047;-88
2022/05/20 13:20:01;;;;;;;5.47;2.25;;;;;;;;;;8457467;28;20058;-89
2022/05/20 13:24:14;;;;;;;7.93;2.42;;;;;;;;;;8460946;28;20108;-86
2022/05/20 13:28:26;;;;;;;7.03;3.30;;;;;;;;;;8456000;28;20074;-87
2022/05/20 13:32:35;;;;;;;6.30;3.30;;;;;;;;;;8442893;28;20180;-90
2022/05/20 13:36:42;;;;;;;4.50;2.72;;;;;;;;;;8465636;28;20044;-89
2022/05/20 13:40:51;;;;;;;5.88;2.80;;;;;;;;;;8464120;28;20062;-89
2022/05/20 13:44:56;;;;;;;5.85;2.75;;;;;;;;;;8460538;28;20039;-89
2022/05/20 13:49:16;;;;;;;5.25;3.17;;;;;;;;;;8466378;28;20052;-87
2022/05/20 13:53:20;;;;;;;7.18;2.88;;;;;;;;;;8466491;28;20575;-87
2022/05/20 13:57:33;;;;;;;5.22;3.05;;;;;;;;;;8467279;28;20066;-88
2022/05/20 14:01:39;;;;;;;8.20;3.42;;;;;;;;;;8461463;28;20496;-88
2022/05/20 14:05:49;;;;;;;9.77;3.40;;;;;;;;;;8461731;28;20492;-89
2022/05/20 14:09:56;;;;;;;7.68;3.22;;;;;;;;;;8461957;28;20039;-88
2022/05/20 14:14:07;;;;;;;6.05;3.10;;;;;;;;;;8467753;28;20207;-88
2022/05/20 14:18:17;;;;;;;5.05;3.00;;;;;;;;;;8467694;28;20043;-88
2022/05/20 14:22:25;;;;;;;7.07;3.22;;;;;;;;;;8467203;28;20507;-88
2022/05/20 14:26:35;;;;;;;23.67;3.25;;;;;;;;;;8467478;28;20170;-88
2022/05/20 14:30:43;;;;;;;6.07;3.17;;;;;;;;;;8467375;28;20066;-89
2022/05/20 14:34:50;;;;;;;6.15;2.63;;;;;;;;;;8467314;28;20047;-89
2022/05/20 14:38:55;;;;;;;9.38;2.97;;;;;;;;;;8466820;28;20055;-89
2022/05/20 14:43:05;;;;;;;4.53;2.72;;;;;;;;;;8467358;28;20057;-89
2022/05/20 14:47:15;;;;;;;4.18;2.88;;;;;;;;;;8466311;28;20043;-88
2022/05/20 14:51:24;;;;;;;6.85;2.80;;;;;;;;;;8466289;28;20062;-89
2022/05/20 14:55:31;;;;;;;7.78;3.08;;;;;;;;;;8466501;28;20089;-88
2022/05/20 14:59:36;;;;;;;8.52;3.15;;;;;;;;;;8466329;28;20113;-89
2022/05/20 15:03:43;;;;;;;5.63;3.20;;;;;;;;;;8465655;28;20040;-87
2022/05/20 15:07:52;;;;;;;6.18;3.08;;;;;;;;;;8465956;28;20046;-88
2022/05/20 15:11:56;;;;;;;9.40;3.08;;;;;;;;;;8465056;28;20043;-88
2022/05/20 15:16:00;;;;;;;6.45;2.40;;;;;;;;;;8464696;28;20041;-89
2022/05/20 15:20:07;;;;;;;5.43;2.55;;;;;;;;;;8464497;28;20483;-89
2022/05/20 15:24:18;;;;;;;6.95;2.75;;;;;;;;;;8465119;28;20059;-88
2022/05/20 15:37:12;;;;;;;7.67;2.70;;;;;;;;;;8460340;28;20372;-88
2022/05/20 15:41:15;;;;;;;10.25;3.15;;;;;;;;;;8464480;28;20093;-88
2022/05/20 15:45:21;;;;;;;6.28;2.95;;;;;;;;;;8464279;28;20040;-88
2022/05/20 15:49:24;;;;;;;14.93;4.63;;;;;;;;;;8464559;28;20157;-89
2022/05/20 15:53:29;;;;;;;10.82;4.38;;;;;;;;;;8464101;28;20126;-88
2022/05/20 15:57:35;;;;;;;6.63;3.28;;;;;;;;;;8463291;28;20039;-89
2022/05/20 16:01:39;;;;;;;5.15;2.50;;;;;;;;;;8463593;28;20043;-89
2022/05/20 16:05:42;;;;;;;4.82;2.50;;;;;;;;;;8463976;28;20067;-89
2022/05/20 16:09:48;;;;;;;6.10;2.72;;;;;;;;;;8463944;28;20050;-89
2022/05/20 16:13:52;;;;;;;3.65;2.50;;;;;;;;;;8439186;28;20403;-89
2022/05/20 16:17:56;;;;;;;7.03;3.88;;;;;;;;;;8452552;28;20047;-89
2022/05/20 16:22:00;;;;;;;6.53;4.70;;;;;;;;;;8461636;28;20055;-88
2022/05/20 16:26:07;;;;;;;10.30;3.10;;;;;;;;;;8460918;28;20039;-88
2022/05/20 16:30:12;;;;;;;6.85;3.40;;;;;;;;;;8455459;28;20099;-88
2022/05/20 16:34:15;;;;;;;8.10;3.65;;;;;;;;;;8453595;28;20043;-88
2022/05/20 16:38:21;;;;;;;8.75;3.40;;;;;;;;;;8457388;28;20093;-88
2022/05/20 16:42:26;;;;;;;7.25;2.75;;;;;;;;;;8450057;28;20039;-88
2022/05/20 16:46:33;;;;;;;5.00;2.55;;;;;;;;;;8461720;28;20050;-88
2022/05/20 16:50:40;;;;;;;8.77;3.13;;;;;;;;;;8463004;28;20055;-89
2022/05/20 16:54:46;;;;;;;7.50;3.08;;;;;;;;;;8462754;28;20487;-89
2022/05/20 17:03:10;;;;;;;4.88;2.67;;;;;;;;;;8454038;28;20039;-89
2022/05/20 17:07:18;;;;;;;4.50;2.47;;;;;;;;;;8449493;28;20090;-88
2022/05/20 17:11:21;;;;;;;7.00;2.63;;;;;;;;;;8456272;28;20048;-88
2022/05/20 17:15:26;;;;;;;6.30;2.83;;;;;;;;;;8447168;28;20040;-88
2022/05/20 17:19:30;;;;;;;5.80;2.90;;;;;;;;;;8456767;28;20143;-88
2022/05/20 17:27:52;;;;;;;8.68;3.60;;;;;;;;;;8453045;28;20105;-89
2022/05/20 17:31:57;;;;;;;6.78;3.40;;;;;;;;;;8464763;28;20487;-88
2022/05/20 17:36:01;;;;;;;5.85;3.17;;;;;;;;;;8462512;28;20054;-88
2022/05/20 17:40:06;;;;;;;7.10;3.30;;;;;;;;;;8462041;28;20574;-87
2022/05/20 17:44:10;;;;;;;4.38;3.03;;;;;;;;;;8468703;28;20082;-88
2022/05/20 17:48:16;;;;;;;7.07;2.90;;;;;;;;;;8468189;28;20511;-88
2022/05/20 17:52:21;;;;;;;5.95;2.97;;;;;;;;;;8468260;28;20051;-88
2022/05/20 17:56:24;;;;;;;7.15;3.33;;;;;;;;;;8467106;28;20039;-88
2022/05/20 18:00:27;;;;;;;6.20;3.55;;;;;;;;;;8466410;28;20047;-88
2022/05/20 18:04:33;;;;;;;14.90;4.63;;;;;;;;;;8457226;28;20039;-89
2022/05/20 18:08:37;;;;;;;10.32;5.82;;;;;;;;;;8450230;28;20052;-89
2022/05/20 18:13:03;;;;;;;7.75;4.05;;;;;;;;;;8460503;28;20070;-88
2022/05/20 18:17:07;;;;;;;10.77;3.53;;;;;;;;;;8466199;28;20452;-88
2022/05/20 18:21:25;;;;;;;6.43;3.42;;;;;;;;;;8461578;28;20451;-90
2022/05/20 18:25:30;;;;;;;7.03;3.53;;;;;;;;;;8384743;28;20051;-90
2022/05/20 18:29:34;;;;;;;7.43;4.25;;;;;;;;;;8385795;28;20037;-89
2022/05/20 18:33:38;;;;;;;14.27;6.07;;;;;;;;;;8393553;28;20049;-89
2022/05/20 18:42:07;;;;;;;9.73;4.75;;;;;;;;;;8395226;28;20465;-90
2022/05/20 18:46:11;;;;;;;7.57;3.97;;;;;;;;;;8392516;28;20049;-89
2022/05/20 18:50:17;;;;;;;9.00;3.90;;;;;;;;;;8399580;28;20048;-90
2022/05/20 18:54:25;;;;;;;6.63;4.20;;;;;;;;;;8399768;28;20102;-91
2022/05/20 18:58:31;;;;;;;6.53;3.78;;;;;;;;;;8400012;28;20423;-89
2022/05/20 19:02:35;;;;;;;8.25;3.70;;;;;;;;;;8399652;28;20051;-90
2022/05/20 19:06:39;;;;;;;4.93;3.92;;;;;;;;;;8394909;28;20067;-89
2022/05/20 19:10:46;;;;;;;6.63;4.25;;;;;;;;;;8398149;28;20040;-89
2022/05/20 19:14:49;;;;;;;4.85;4.00;;;;;;;;;;8400697;28;20044;-90
2022/05/20 19:19:54;;;;;;;21.00;10.15;;;;;;;;;;8398613;28;20047;-89
2022/05/20 19:24:27;;;;;;;9.63;4.68;;;;;;;;;;8441384;28;20515;-89
2022/05/20 19:28:37;;;;;;;8.63;6.05;;;;;;;;;;8465406;28;20043;-89
2022/05/20 19:33:14;;;;;;;69.03;38.80;;;;;;;;;;8464636;28;20070;-88
2022/05/20 19:37:20;;;;;;;9.98;5.50;;;;;;;;;;8465052;28;20050;-89
2022/05/20 19:41:45;;;;;;;12.13;5.65;;;;;;;;;;8447803;28;20050;-90
2022/05/20 19:45:54;;;;;;;7.55;4.88;;;;;;;;;;8451987;28;20130;-89
2022/05/20 19:50:08;;;;;;;11.15;4.25;;;;;;;;;;8459636;28;20043;-90
2022/05/20 19:54:24;;;;;;;14.95;8.65;;;;;;;;;;8451863;28;20078;-90
2022/05/20 20:02:56;;;;;;;141.02;61.67;;;;;;;;;;8463436;28;20054;-89
2022/05/20 20:07:00;;;;;;;21.98;9.88;;;;;;;;;;8450328;28;20047;-88
2022/05/20 20:15:53;;;;;;;61.72;30.45;;;;;;;;;;8444555;28;20135;-88
2022/05/20 20:20:02;;;;;;;58.50;34.50;;;;;;;;;;8463322;28;20048;-88
2022/05/20 20:33:32;;;;;;;13.07;6.28;;;;;;;;;;8456438;28;20058;-90
2022/05/20 20:37:40;;;;;;;24.52;13.80;;;;;;;;;;8466538;28;20052;-90
2022/05/20 20:41:48;;;;;;;18.42;9.50;;;;;;;;;;8464051;28;20088;-90
2022/05/20 20:45:59;;;;;;;24.92;12.40;;;;;;;;;;8463462;28;20051;-89
2022/05/20 20:50:10;;;;;;;20.90;11.98;;;;;;;;;;8463741;28;20085;-89
2022/05/20 20:54:33;;;;;;;24.00;11.90;;;;;;;;;;8462664;28;20499;-90
2022/05/20 21:03:51;;;;;;;13.65;7.30;;;;;;;;;;8429890;28;20062;-89
2022/05/20 21:07:57;;;;;;;17.52;9.20;;;;;;;;;;8436139;28;20098;-89
2022/05/20 21:12:21;;;;;;;15.60;10.23;;;;;;;;;;8435247;28;20051;-90
2022/05/20 21:16:24;;;;;;;12.45;7.05;;;;;;;;;;8435286;28;20048;-89
2022/05/20 21:20:28;;;;;;;15.48;6.80;;;;;;;;;;8434697;28;20048;-88
2022/05/20 21:24:32;;;;;;;10.70;6.30;;;;;;;;;;8435518;28;20048;-89
2022/05/20 21:28:37;;;;;;;8.13;6.05;;;;;;;;;;8435686;28;20516;-89
2022/05/20 21:32:39;;;;;;;10.70;6.68;;;;;;;;;;8434775;28;20047;-89
2022/05/20 21:36:44;;;;;;;12.30;6.00;;;;;;;;;;8435252;28;20100;-89
2022/05/20 21:40:48;;;;;;;11.13;6.53;;;;;;;;;;8435086;28;20414;-89
2022/05/20 21:44:53;;;;;;;9.63;6.55;;;;;;;;;;8434188;28;20125;-89
2022/05/20 21:48:55;;;;;;;9.80;6.22;;;;;;;;;;8434999;28;20044;-89
2022/05/20 21:52:58;;;;;;;7.80;6.28;;;;;;;;;;8434968;28;20047;-90
2022/05/20 21:57:01;;;;;;;11.65;6.65;;;;;;;;;;8431600;28;20101;-89
2022/05/20 22:09:46;;;;;;;8.90;6.32;;;;;;;;;;8433460;28;20487;-89
2022/05/20 22:13:48;;;;;;;10.70;6.65;;;;;;;;;;8425292;28;20128;-89
2022/05/20 22:17:53;;;;;;;10.57;6.85;;;;;;;;;;8433534;28;20044;-90
2022/05/20 22:21:56;;;;;;;11.55;7.00;;;;;;;;;;8433012;28;20060;-90
2022/05/20 22:25:59;;;;;;;11.70;7.65;;;;;;;;;;8433916;28;20046;-90
2022/05/20 22:30:03;;;;;;;11.27;7.82;;;;;;;;;;8433701;28;20610;-90
2022/05/20 22:34:07;;;;;;;9.73;6.93;;;;;;;;;;8432610;28;20047;-88
2022/05/20 22:38:10;;;;;;;11.95;7.78;;;;;;;;;;8433313;28;20048;-89
2022/05/20 22:42:13;;;;;;;11.57;8.00;;;;;;;;;;8433227;28;20051;-89
2022/05/20 22:46:15;;;;;;;9.45;7.25;;;;;;;;;;8428495;28;20535;-89
2022/05/20 22:50:20;;;;;;;10.95;7.70;;;;;;;;;;8432328;28;20039;-89
2022/05/20 22:54:22;;;;;;;10.68;7.75;;;;;;;;;;8432712;28;20047;-89
2022/05/20 22:58:25;;;;;;;9.27;7.03;;;;;;;;;;8432395;28;20106;-89
2022/05/20 23:02:28;;;;;;;12.20;8.10;;;;;;;;;;8429508;28;20047;-90
2022/05/20 23:06:32;;;;;;;10.07;7.57;;;;;;;;;;8432488;28;20036;-89
2022/05/20 23:10:34;;;;;;;11.73;7.93;;;;;;;;;;8432455;28;20047;-88
2022/05/20 23:14:38;;;;;;;13.18;8.50;;;;;;;;;;8432273;28;20483;-90
2022/05/20 23:18:41;;;;;;;11.98;7.90;;;;;;;;;;8426530;28;20503;-91
2022/05/20 23:22:45;;;;;;;11.63;8.60;;;;;;;;;;8431187;28;20075;-90
2022/05/20 23:26:48;;;;;;;10.48;8.40;;;;;;;;;;8431575;28;20068;-90
2022/05/20 23:30:55;;;;;;;11.07;8.18;;;;;;;;;;8428073;28;20448;-89
2022/05/20 23:34:58;;;;;;;11.55;8.50;;;;;;;;;;8423721;28;20552;-90
2022/05/20 23:39:02;;;;;;;13.55;8.65;;;;;;;;;;8422428;28;20036;-89
2022/05/20 23:43:05;;;;;;;13.75;8.35;;;;;;;;;;8428566;28;20093;-89
2022/05/20 23:47:08;;;;;;;11.90;7.82;;;;;;;;;;8425441;28;20048;-89
2022/05/20 23:51:11;;;;;;;10.38;7.93;;;;;;;;;;8425792;28;20040;-89
2022/05/20 23:59:38;;;;;;;14.18;8.02;;;;;;;;;;8421231;28;20044;-92
